Port Weller, Canada
Current Conditions -  °F | °C
As of 9:00 PM on Sunday 25 Jan 2015 (Local Time) from CYSN Reporting Station
Broken Clouds Broken Clouds  
Wind Chill:   Ceiling: 2800
Heat Index: 18°   Visibility: 15mi
Dew Point: 10°   Wind: 9mph
Humidity: 73%   Direction: 30°NNE
Pressure: 30.04"   Gusts: NA
Location:  43.22°N, 79.22°W
Report Text: CYSN 260200Z 03008KT 15SM BKN028 BKN200 M08/M12 A3004 RMK SC5CI2 LAST STFD OBS/NEXT 261200 UTC SLP180
Loading
Personal Weather Stations






























Interactive Weather Map New forecast layout! Learn more

10-Day Weather Forecast

Advertisements
Track Severe Weather on mobile